createdAt,value
2019-05-29T00:00:10.076Z,8.00
2019-05-29T00:02:39.121Z,7.90
2019-05-29T00:05:08.145Z,7.90
2019-05-29T00:07:37.738Z,7.80
2019-05-29T00:10:08.887Z,7.70
2019-05-29T00:12:38.274Z,7.70
2019-05-29T00:15:08.370Z,7.60
2019-05-29T00:17:37.282Z,7.50
2019-05-29T00:20:06.555Z,7.40
2019-05-29T00:22:35.300Z,7.40
2019-05-29T00:25:06.382Z,7.50
2019-05-29T00:27:35.310Z,7.50
2019-05-29T00:30:05.116Z,7.40
2019-05-29T00:32:33.881Z,7.40
2019-05-29T00:35:02.656Z,7.50
2019-05-29T00:37:31.552Z,7.40
2019-05-29T00:40:00.353Z,7.30
2019-05-29T00:42:29.133Z,7.30
2019-05-29T00:44:57.857Z,7.20
2019-05-29T00:47:26.633Z,7.10
2019-05-29T00:49:55.298Z,7.10
2019-05-29T00:52:23.977Z,7.10
2019-05-29T00:54:52.668Z,7.10
2019-05-29T00:57:21.418Z,7.00
2019-05-29T00:59:50.232Z,7.00
2019-05-29T01:02:19.803Z,6.90
2019-05-29T01:04:48.769Z,6.70
2019-05-29T01:07:18.351Z,6.70
2019-05-29T01:09:47.210Z,6.70
2019-05-29T01:12:17.092Z,6.70
2019-05-29T01:14:49.989Z,6.70
2019-05-29T01:17:17.627Z,6.70
2019-05-29T01:19:46.452Z,6.70
2019-05-29T01:22:16.155Z,6.70
2019-05-29T01:24:45.013Z,6.70
2019-05-29T01:27:15.083Z,6.60
2019-05-29T01:29:44.037Z,6.50
2019-05-29T01:32:13.426Z,6.40
2019-05-29T01:34:42.353Z,6.20
2019-05-29T01:37:11.151Z,6.10
2019-05-29T01:39:39.864Z,6.00
2019-05-29T01:42:08.492Z,6.00
2019-05-29T01:44:37.269Z,6.00
2019-05-29T01:47:06.144Z,5.90
2019-05-29T01:49:34.859Z,6.00
2019-05-29T01:52:03.681Z,6.00
2019-05-29T01:54:32.359Z,6.00
2019-05-29T01:57:01.154Z,6.00
2019-05-29T01:59:30.535Z,5.90
2019-05-29T02:01:59.369Z,5.80
2019-05-29T02:04:28.246Z,5.80
2019-05-29T02:06:57.013Z,5.80
2019-05-29T02:09:25.720Z,5.90
2019-05-29T02:11:54.516Z,5.90
2019-05-29T02:14:24.700Z,5.90
2019-05-29T02:16:53.827Z,5.90
2019-05-29T02:19:23.915Z,5.90
2019-05-29T02:21:52.844Z,5.90
2019-05-29T02:24:21.700Z,5.90
2019-05-29T02:26:50.454Z,5.90
2019-05-29T02:29:20.505Z,5.70
2019-05-29T02:31:49.623Z,5.70
2019-05-29T02:34:19.861Z,5.60
2019-05-29T02:36:49.003Z,5.50
2019-05-29T02:39:18.683Z,5.50
2019-05-29T02:41:48.217Z,5.50
2019-05-29T02:44:17.018Z,5.40
2019-05-29T02:46:45.693Z,5.30
2019-05-29T02:49:14.546Z,5.30
2019-05-29T02:51:43.461Z,5.40
2019-05-29T02:54:12.361Z,5.40
2019-05-29T02:56:42.610Z,5.30
2019-05-29T02:59:11.716Z,5.20
2019-05-29T03:01:40.506Z,5.20
2019-05-29T03:04:09.269Z,5.10
2019-05-29T03:06:38.408Z,5.10
2019-05-29T03:09:07.512Z,5.00
2019-05-29T03:11:36.323Z,5.00
2019-05-29T03:14:05.495Z,5.00
2019-05-29T03:16:35.016Z,5.00
2019-05-29T03:19:03.978Z,4.90
2019-05-29T03:21:34.588Z,4.80
2019-05-29T03:24:03.290Z,4.80
2019-05-29T03:26:33.310Z,4.80
2019-05-29T03:29:02.705Z,4.90
2019-05-29T03:31:38.168Z,4.90
2019-05-29T03:34:01.984Z,4.80
2019-05-29T03:36:38.403Z,4.70
2019-05-29T03:39:01.259Z,4.60
2019-05-29T03:41:30.313Z,4.60
2019-05-29T03:43:59.201Z,4.70
2019-05-29T03:46:34.414Z,4.80
2019-05-29T03:48:59.004Z,4.90
2019-05-29T03:51:29.491Z,5.30
2019-05-29T03:53:58.254Z,5.90
2019-05-29T03:56:28.271Z,6.60
2019-05-29T03:58:57.157Z,7.10
2019-05-29T04:01:26.806Z,7.70
2019-05-29T04:03:55.654Z,8.10
2019-05-29T04:06:24.433Z,8.50
2019-05-29T04:08:53.880Z,9.00
2019-05-29T04:11:22.985Z,9.50
2019-05-29T04:13:51.849Z,9.70
2019-05-29T04:16:22.647Z,10.10
2019-05-29T04:18:52.021Z,10.40
2019-05-29T04:21:23.024Z,10.50
2019-05-29T04:23:54.102Z,10.70
2019-05-29T04:26:25.079Z,11.10
2019-05-29T04:28:54.313Z,11.60
2019-05-29T04:31:25.132Z,11.90
2019-05-29T04:33:54.307Z,12.00
2019-05-29T04:36:23.147Z,12.00
2019-05-29T04:38:52.062Z,12.20
2019-05-29T04:41:20.943Z,12.20
2019-05-29T04:43:49.627Z,12.50
2019-05-29T04:46:18.395Z,12.70
2019-05-29T04:48:47.118Z,12.80
2019-05-29T04:51:15.858Z,13.50
2019-05-29T04:53:44.560Z,14.10
2019-05-29T04:56:13.336Z,14.60
2019-05-29T04:58:42.034Z,14.60
2019-05-29T05:01:10.856Z,14.90
2019-05-29T05:03:39.612Z,15.00
2019-05-29T05:06:08.416Z,14.70
2019-05-29T05:08:37.479Z,14.60
2019-05-29T05:11:06.418Z,14.60
2019-05-29T05:13:35.584Z,14.40
2019-05-29T05:16:04.695Z,14.40
2019-05-29T05:18:33.799Z,14.80
2019-05-29T05:21:02.688Z,15.00
2019-05-29T05:23:31.992Z,15.00
2019-05-29T05:26:00.785Z,14.80
2019-05-29T05:28:30.374Z,14.90
2019-05-29T05:30:59.379Z,14.70
2019-05-29T05:33:32.431Z,14.50
2019-05-29T05:36:01.588Z,14.10
2019-05-29T05:38:30.632Z,14.30
2019-05-29T05:40:59.476Z,14.50
2019-05-29T05:43:28.252Z,13.80
2019-05-29T05:45:57.049Z,13.20
2019-05-29T05:48:25.883Z,12.60
2019-05-29T05:50:54.582Z,13.30
2019-05-29T05:53:23.383Z,14.40
2019-05-29T05:55:52.802Z,15.20
2019-05-29T05:58:21.544Z,15.50
2019-05-29T06:00:50.795Z,15.30
2019-05-29T06:03:19.559Z,14.80
2019-05-29T06:05:48.390Z,14.30
2019-05-29T06:08:17.251Z,14.60
2019-05-29T06:10:46.160Z,15.00
2019-05-29T06:13:15.058Z,15.20
2019-05-29T06:15:43.927Z,15.20
2019-05-29T06:18:21.077Z,15.20
2019-05-29T06:20:43.295Z,14.60
2019-05-29T06:23:12.110Z,14.00
2019-05-29T06:25:42.464Z,13.90
2019-05-29T06:28:11.305Z,14.10
2019-05-29T06:30:41.254Z,14.20
2019-05-29T06:33:10.784Z,13.70
2019-05-29T06:35:39.709Z,13.80
2019-05-29T06:38:08.552Z,13.70
2019-05-29T06:40:43.895Z,14.30
2019-05-29T06:43:15.666Z,14.70
2019-05-29T06:45:44.485Z,14.20
2019-05-29T06:48:16.033Z,14.60
2019-05-29T06:50:45.203Z,15.20
2019-05-29T06:53:14.061Z,15.20
2019-05-29T06:55:44.036Z,15.30
2019-05-29T06:58:12.904Z,16.00
2019-05-29T07:00:42.797Z,15.60
2019-05-29T07:03:11.760Z,15.00
2019-05-29T07:05:44.703Z,15.10
2019-05-29T07:08:19.011Z,15.10
2019-05-29T07:10:44.591Z,14.90
2019-05-29T07:13:13.330Z,15.40
2019-05-29T07:15:42.919Z,15.60
2019-05-29T07:18:11.914Z,15.70
2019-05-29T07:20:40.733Z,15.60
2019-05-29T07:23:09.539Z,15.40
2019-05-29T07:25:38.780Z,15.10
2019-05-29T07:28:07.692Z,15.20
2019-05-29T07:30:37.334Z,14.90
2019-05-29T07:33:06.377Z,15.20
2019-05-29T07:35:35.164Z,15.80
2019-05-29T07:38:04.181Z,15.80
2019-05-29T07:40:35.679Z,15.70
2019-05-29T07:43:03.650Z,15.50
2019-05-29T07:45:32.450Z,15.60
2019-05-29T07:48:01.494Z,15.40
2019-05-29T07:50:30.644Z,16.10
2019-05-29T07:52:59.693Z,17.00
2019-05-29T07:55:28.613Z,17.70
2019-05-29T07:57:57.423Z,18.40
2019-05-29T08:00:35.119Z,18.20
2019-05-29T08:02:56.688Z,17.50
2019-05-29T08:05:25.558Z,17.50
2019-05-29T08:07:54.265Z,17.80
2019-05-29T08:10:23.560Z,17.20
2019-05-29T08:12:55.570Z,16.00
2019-05-29T08:15:22.859Z,16.60
2019-05-29T08:17:51.522Z,17.30
2019-05-29T08:20:20.660Z,17.80
2019-05-29T08:22:51.195Z,19.50
2019-05-29T08:25:20.210Z,20.60
2019-05-29T08:27:48.993Z,20.90
2019-05-29T08:30:19.437Z,19.80
2019-05-29T08:32:49.186Z,20.20
2019-05-29T08:35:18.201Z,21.00
2019-05-29T08:37:47.064Z,21.60
2019-05-29T08:40:16.155Z,21.50
2019-05-29T08:42:45.237Z,20.90
2019-05-29T08:45:14.764Z,20.80
2019-05-29T08:47:43.567Z,20.70
2019-05-29T08:50:18.658Z,19.40
2019-05-29T08:52:43.901Z,18.30
2019-05-29T08:55:13.920Z,16.60
2019-05-29T08:57:44.104Z,16.50
2019-05-29T09:00:13.772Z,17.80
2019-05-29T09:02:42.742Z,18.50
2019-05-29T09:05:12.558Z,19.40
2019-05-29T09:07:43.022Z,20.60
2019-05-29T09:10:12.238Z,21.20
2019-05-29T09:12:41.019Z,20.80
2019-05-29T09:15:10.914Z,19.50
2019-05-29T09:17:39.789Z,18.90
2019-05-29T09:20:27.174Z,17.60
2019-05-29T09:22:39.771Z,17.30
2019-05-29T09:25:08.758Z,18.00
2019-05-29T09:27:37.550Z,18.50
2019-05-29T09:30:07.827Z,19.10
2019-05-29T09:32:49.657Z,20.60
2019-05-29T09:35:07.297Z,20.90
2019-05-29T09:37:36.143Z,19.50
2019-05-29T09:40:07.688Z,19.60
2019-05-29T09:42:36.400Z,19.80
2019-05-29T09:45:06.574Z,20.30
2019-05-29T09:47:35.323Z,20.80
2019-05-29T09:50:06.780Z,20.50
2019-05-29T09:52:35.582Z,20.70
2019-05-29T09:55:06.254Z,20.90
2019-05-29T09:57:35.064Z,20.00
2019-05-29T10:00:05.576Z,18.40
2019-05-29T10:02:34.476Z,18.50
2019-05-29T10:05:04.229Z,17.90
2019-05-29T10:07:32.957Z,18.10
2019-05-29T10:10:04.678Z,19.30
2019-05-29T10:12:32.277Z,19.60
2019-05-29T10:15:02.768Z,20.60
2019-05-29T10:17:31.986Z,20.90
2019-05-29T10:20:00.899Z,21.10
2019-05-29T10:22:29.676Z,21.30
2019-05-29T10:24:59.855Z,21.00
2019-05-29T10:27:28.833Z,19.60
2019-05-29T10:29:57.543Z,18.70
2019-05-29T10:32:26.333Z,18.70
2019-05-29T10:34:55.104Z,19.00
2019-05-29T10:37:23.905Z,19.90
2019-05-29T10:39:53.057Z,19.30
2019-05-29T10:42:22.029Z,18.80
2019-05-29T10:44:51.309Z,17.90
2019-05-29T10:47:20.342Z,18.00
2019-05-29T10:49:49.746Z,18.40
2019-05-29T10:52:18.685Z,18.30
2019-05-29T10:54:48.140Z,18.90
2019-05-29T10:57:17.082Z,20.20
2019-05-29T10:59:46.628Z,20.30
2019-05-29T11:02:15.501Z,19.80
2019-05-29T11:04:48.905Z,19.00
2019-05-29T11:07:14.804Z,19.40
2019-05-29T11:09:44.996Z,20.80
2019-05-29T11:12:14.125Z,21.30
2019-05-29T11:14:42.934Z,20.20
2019-05-29T11:17:11.686Z,19.70
2019-05-29T11:19:40.479Z,19.50
2019-05-29T11:22:25.213Z,19.70
2019-05-29T11:24:39.784Z,20.00
2019-05-29T11:27:08.649Z,19.40
2019-05-29T11:29:37.681Z,19.00
2019-05-29T11:32:06.625Z,18.90
2019-05-29T11:34:35.320Z,18.40
2019-05-29T11:37:04.183Z,18.80
2019-05-29T11:39:33.023Z,18.60
2019-05-29T11:42:03.037Z,18.90
2019-05-29T11:44:32.086Z,18.80
2019-05-29T11:47:02.397Z,19.30
2019-05-29T11:49:31.567Z,19.20
2019-05-29T11:52:21.682Z,18.50
2019-05-29T11:54:31.365Z,18.80
2019-05-29T11:57:00.329Z,18.70
2019-05-29T11:59:29.138Z,18.70
2019-05-29T12:01:59.320Z,18.40
2019-05-29T12:04:28.505Z,18.60
2019-05-29T12:06:59.532Z,19.10
2019-05-29T12:09:32.667Z,19.60
2019-05-29T12:12:00.350Z,19.80
2019-05-29T12:14:29.969Z,21.20
2019-05-29T12:17:00.271Z,21.70
2019-05-29T12:19:29.336Z,21.30
2019-05-29T12:21:58.400Z,21.10
2019-05-29T12:24:27.216Z,20.40
2019-05-29T12:26:56.406Z,21.50
2019-05-29T12:29:25.391Z,22.40
2019-05-29T12:31:54.904Z,22.30
2019-05-29T12:34:23.790Z,21.30
2019-05-29T12:36:53.312Z,20.70
2019-05-29T12:39:22.332Z,21.00
2019-05-29T12:41:51.267Z,22.00
2019-05-29T12:44:21.413Z,21.20
2019-05-29T12:46:50.270Z,21.00
2019-05-29T12:49:19.142Z,20.40
2019-05-29T12:51:47.895Z,20.70
2019-05-29T12:54:16.697Z,20.70
2019-05-29T12:56:45.505Z,20.20
2019-05-29T12:59:14.283Z,20.20
2019-05-29T13:01:43.049Z,20.80
2019-05-29T13:04:11.812Z,21.60
2019-05-29T13:06:40.637Z,21.10
2019-05-29T13:09:09.971Z,21.10
2019-05-29T13:11:38.862Z,21.30
2019-05-29T13:14:07.840Z,22.30
2019-05-29T13:16:36.620Z,22.70
2019-05-29T13:19:05.779Z,22.10
2019-05-29T13:21:34.690Z,21.90
2019-05-29T13:24:05.319Z,21.00
2019-05-29T13:26:34.082Z,20.40
2019-05-29T13:29:03.921Z,20.10
2019-05-29T13:31:33.091Z,20.40
2019-05-29T13:34:02.123Z,20.10
2019-05-29T13:36:31.019Z,20.70
2019-05-29T13:39:02.514Z,20.60
2019-05-29T13:41:31.360Z,20.10
2019-05-29T13:44:00.496Z,20.00
2019-05-29T13:46:29.713Z,20.30
2019-05-29T13:48:58.873Z,20.70
2019-05-29T13:51:28.206Z,21.60
2019-05-29T13:54:03.695Z,20.20
2019-05-29T13:56:27.519Z,19.60
2019-05-29T13:58:57.747Z,19.80
2019-05-29T14:01:26.748Z,19.50
2019-05-29T14:03:55.610Z,19.40
2019-05-29T14:06:24.439Z,19.90
2019-05-29T14:08:53.272Z,19.80
2019-05-29T14:11:22.267Z,19.20
2019-05-29T14:13:51.117Z,19.20
2019-05-29T14:16:20.086Z,18.60
2019-05-29T14:18:48.912Z,18.10
2019-05-29T14:21:17.663Z,17.70
2019-05-29T14:23:46.546Z,17.50
2019-05-29T14:26:15.346Z,17.60
2019-05-29T14:28:44.113Z,17.80
2019-05-29T14:31:13.628Z,18.10
2019-05-29T14:33:43.661Z,18.30
2019-05-29T14:36:12.490Z,18.50
2019-05-29T14:38:41.275Z,18.60
2019-05-29T14:41:10.037Z,18.40
2019-05-29T14:43:38.815Z,18.30
2019-05-29T14:46:08.127Z,17.90
2019-05-29T14:48:37.155Z,17.90
2019-05-29T14:51:06.592Z,17.60
2019-05-29T14:53:35.583Z,17.30
2019-05-29T14:56:04.752Z,17.30
2019-05-29T14:58:33.601Z,17.50
2019-05-29T15:01:03.094Z,17.70
2019-05-29T15:03:32.075Z,17.90
2019-05-29T15:06:00.987Z,17.70
2019-05-29T15:08:29.800Z,17.70
2019-05-29T15:10:58.573Z,17.90
2019-05-29T15:13:27.382Z,17.90
2019-05-29T15:15:56.189Z,18.00
2019-05-29T15:18:24.989Z,18.00
2019-05-29T15:20:53.854Z,17.60
2019-05-29T15:23:22.619Z,17.40
2019-05-29T15:25:51.411Z,17.30
2019-05-29T15:28:20.290Z,17.20
2019-05-29T15:30:49.099Z,17.30
2019-05-29T15:33:17.884Z,17.40
2019-05-29T15:35:46.749Z,17.50
2019-05-29T15:38:16.935Z,17.40
2019-05-29T15:40:47.676Z,17.30
2019-05-29T15:43:17.189Z,17.30
2019-05-29T15:45:46.681Z,17.40
2019-05-29T15:48:15.493Z,17.40
2019-05-29T15:50:44.654Z,17.40
2019-05-29T15:53:15.100Z,17.40
2019-05-29T15:55:44.179Z,17.40
2019-05-29T15:58:13.423Z,17.40
2019-05-29T16:00:42.375Z,17.30
2019-05-29T16:03:11.511Z,17.50
2019-05-29T16:05:40.421Z,17.70
2019-05-29T16:08:09.907Z,17.60
2019-05-29T16:10:39.638Z,17.50
2019-05-29T16:13:08.815Z,17.50
2019-05-29T16:15:37.495Z,17.70
2019-05-29T16:18:19.070Z,17.80
2019-05-29T16:20:37.002Z,17.90
2019-05-29T16:23:05.818Z,18.00
2019-05-29T16:25:40.462Z,18.00
2019-05-29T16:28:06.472Z,18.10
2019-05-29T16:30:35.221Z,18.10
2019-05-29T16:33:04.025Z,18.20
2019-05-29T16:35:36.913Z,18.10
2019-05-29T16:38:03.334Z,18.20
2019-05-29T16:40:32.308Z,18.10
2019-05-29T16:43:01.383Z,18.00
2019-05-29T16:45:30.172Z,17.90
2019-05-29T16:47:58.991Z,17.80
2019-05-29T16:50:28.424Z,17.70
2019-05-29T16:52:57.109Z,17.60
2019-05-29T16:55:25.955Z,17.60
2019-05-29T16:57:54.742Z,17.70
2019-05-29T17:00:24.074Z,17.70
2019-05-29T17:02:52.831Z,17.70
2019-05-29T17:05:22.261Z,17.60
2019-05-29T17:07:51.121Z,17.50
2019-05-29T17:10:22.780Z,17.50
2019-05-29T17:12:51.549Z,17.40
2019-05-29T17:15:22.692Z,17.40
2019-05-29T17:17:51.836Z,17.40
2019-05-29T17:20:23.427Z,17.30
2019-05-29T17:22:52.237Z,17.30
2019-05-29T17:25:24.623Z,17.40
2019-05-29T17:27:52.245Z,17.40
2019-05-29T17:30:25.028Z,17.40
2019-05-29T17:32:54.163Z,17.30
2019-05-29T17:35:23.212Z,17.30
2019-05-29T17:37:53.650Z,17.30
2019-05-29T17:40:23.563Z,17.20
2019-05-29T17:42:52.449Z,17.20
2019-05-29T17:45:24.579Z,17.20
2019-05-29T17:47:51.811Z,17.20
2019-05-29T17:50:23.172Z,17.20
2019-05-29T17:52:51.695Z,17.20
2019-05-29T17:55:24.589Z,17.10
2019-05-29T17:57:56.635Z,17.10
2019-05-29T18:00:26.685Z,17.10
2019-05-29T18:02:55.579Z,17.00
2019-05-29T18:05:24.798Z,17.00
2019-05-29T18:07:53.751Z,17.00
2019-05-29T18:10:24.127Z,17.00
2019-05-29T18:12:53.564Z,17.00
2019-05-29T18:15:23.695Z,17.00
2019-05-29T18:17:52.577Z,16.90
2019-05-29T18:20:23.601Z,16.90
2019-05-29T18:22:52.616Z,16.90
2019-05-29T18:25:21.914Z,16.90
2019-05-29T18:27:50.861Z,16.90
2019-05-29T18:30:20.635Z,16.80
2019-05-29T18:32:49.550Z,16.80
2019-05-29T18:35:19.031Z,16.70
2019-05-29T18:37:49.507Z,16.70
2019-05-29T18:40:20.224Z,16.70
2019-05-29T18:42:50.069Z,16.60
2019-05-29T18:45:22.904Z,16.60
2019-05-29T18:47:51.827Z,16.50
2019-05-29T18:50:21.494Z,16.50
2019-05-29T18:52:50.376Z,16.40
2019-05-29T18:55:19.340Z,16.40
2019-05-29T18:57:49.697Z,16.30
2019-05-29T19:00:21.157Z,16.20
2019-05-29T19:02:51.031Z,16.10
2019-05-29T19:05:21.542Z,16.10
2019-05-29T19:07:50.368Z,16.00
2019-05-29T19:10:30.446Z,16.00
2019-05-29T19:13:00.830Z,15.90
2019-05-29T19:15:30.095Z,15.80
2019-05-29T19:18:00.545Z,15.70
2019-05-29T19:20:30.482Z,15.70
2019-05-29T19:22:59.401Z,15.60
2019-05-29T19:25:29.035Z,15.50
2019-05-29T19:27:57.979Z,15.40
2019-05-29T19:30:27.015Z,15.40
2019-05-29T19:32:55.904Z,15.30
2019-05-29T19:35:25.447Z,15.30
2019-05-29T19:37:54.702Z,15.20
2019-05-29T19:40:24.022Z,15.10
2019-05-29T19:42:54.712Z,15.00
2019-05-29T19:45:24.655Z,14.90
2019-05-29T19:47:53.681Z,14.80
2019-05-29T19:50:22.621Z,14.80
2019-05-29T19:52:51.699Z,14.80
2019-05-29T19:55:20.597Z,14.70
2019-05-29T19:57:55.692Z,14.70
2019-05-29T20:00:20.310Z,14.60
2019-05-29T20:02:49.590Z,14.50
2019-05-29T20:05:18.642Z,14.40
2019-05-29T20:07:48.904Z,14.30
2019-05-29T20:10:18.033Z,14.20
2019-05-29T20:12:46.858Z,14.10
2019-05-29T20:15:16.708Z,14.10
2019-05-29T20:17:45.496Z,14.10
2019-05-29T20:20:15.199Z,14.10
2019-05-29T20:22:44.128Z,14.10
2019-05-29T20:25:13.940Z,14.00
2019-05-29T20:27:43.000Z,14.00
2019-05-29T20:30:14.914Z,14.00
2019-05-29T20:32:45.244Z,14.00
2019-05-29T20:35:15.788Z,14.00
2019-05-29T20:37:45.645Z,14.00
2019-05-29T20:40:16.147Z,13.90
2019-05-29T20:42:45.057Z,13.90
2019-05-29T20:45:14.376Z,13.90
2019-05-29T20:47:43.338Z,13.80
2019-05-29T20:50:12.937Z,13.70
2019-05-29T20:52:41.958Z,13.80
2019-05-29T20:55:11.070Z,13.70
2019-05-29T20:57:40.125Z,13.70
2019-05-29T21:00:10.895Z,13.60
2019-05-29T21:02:40.414Z,13.60
2019-05-29T21:05:09.695Z,13.50
2019-05-29T21:07:38.863Z,13.40
2019-05-29T21:10:08.185Z,13.30
2019-05-29T21:12:37.517Z,13.30
2019-05-29T21:15:07.805Z,13.20
2019-05-29T21:17:37.763Z,13.20
2019-05-29T21:20:09.663Z,13.10
2019-05-29T21:22:38.663Z,13.10
2019-05-29T21:25:12.298Z,13.00
2019-05-29T21:27:43.233Z,13.00
2019-05-29T21:30:12.577Z,12.90
2019-05-29T21:32:44.035Z,12.90
2019-05-29T21:35:13.195Z,12.90
2019-05-29T21:37:42.467Z,12.90
2019-05-29T21:40:11.665Z,12.80
2019-05-29T21:42:40.617Z,12.70
2019-05-29T21:45:09.577Z,12.70
2019-05-29T21:47:38.969Z,12.60
2019-05-29T21:50:09.571Z,12.50
2019-05-29T21:52:39.452Z,12.40
2019-05-29T21:55:10.074Z,12.40
2019-05-29T21:57:43.915Z,12.30
2019-05-29T22:00:13.688Z,12.20
2019-05-29T22:02:42.752Z,12.10
2019-05-29T22:05:11.922Z,12.10
2019-05-29T22:07:40.813Z,12.00
2019-05-29T22:10:10.519Z,12.00
2019-05-29T22:12:39.300Z,12.00
2019-05-29T22:15:08.691Z,11.90
2019-05-29T22:17:37.548Z,11.90
2019-05-29T22:20:07.919Z,11.90
2019-05-29T22:22:37.036Z,11.80
2019-05-29T22:25:07.244Z,11.80
2019-05-29T22:27:37.042Z,11.80
2019-05-29T22:30:08.046Z,11.80
2019-05-29T22:32:36.770Z,11.80
2019-05-29T22:35:07.119Z,11.70
2019-05-29T22:37:35.895Z,11.70
2019-05-29T22:40:06.574Z,11.80
2019-05-29T22:42:35.543Z,11.70
2019-05-29T22:45:05.669Z,11.70
2019-05-29T22:47:34.522Z,11.80
2019-05-29T22:50:04.756Z,11.80
2019-05-29T22:52:33.549Z,11.90
2019-05-29T22:55:02.441Z,11.90
2019-05-29T22:57:31.221Z,11.90
2019-05-29T23:00:00.239Z,11.90
2019-05-29T23:02:29.001Z,12.00
2019-05-29T23:04:58.461Z,12.10
2019-05-29T23:07:27.555Z,12.10
2019-05-29T23:09:56.397Z,12.10
2019-05-29T23:12:25.183Z,12.10
2019-05-29T23:14:54.403Z,12.10
2019-05-29T23:17:23.339Z,12.10
2019-05-29T23:19:52.434Z,12.10
2019-05-29T23:22:24.338Z,12.00
2019-05-29T23:24:52.626Z,12.00
2019-05-29T23:27:21.529Z,11.90
2019-05-29T23:29:50.353Z,11.80
2019-05-29T23:32:19.113Z,11.80
2019-05-29T23:34:48.343Z,11.90
2019-05-29T23:37:17.221Z,11.90
2019-05-29T23:39:46.024Z,11.80
2019-05-29T23:42:14.774Z,11.80
2019-05-29T23:44:43.582Z,11.80
2019-05-29T23:47:12.930Z,11.90
2019-05-29T23:49:41.701Z,11.80
2019-05-29T23:52:10.485Z,11.80
2019-05-29T23:54:39.369Z,11.90
2019-05-29T23:57:08.466Z,11.80
2019-05-29T23:59:37.267Z,11.90
